Vidette, Georgia
Current Conditions -  °F | °C
As of 11:35 PM on Saturday 20 Dec 2014 (Local Time) from KOKZ Reporting Station
Haze Haze  
Wind Chill: 50°   Ceiling: 600
Heat Index: 50°   Visibility: 5mi
Dew Point: 49°   Wind: 5mph
Humidity: 97%   Direction: 80°E
Pressure: 30.22"   Gusts: NA
Location:  33.028°N, 82.379°W
Report Text: KOKZ 210435Z AUTO 08004KT 5SM BR OVC006 10/10 A3022 RMK AO2 T01000095
Loading
Personal Weather Stations






























Interactive Weather Map New forecast layout! Learn more

10-Day Weather Forecast

Advertisements
Track Severe Weather on mobile